Forside
METAR-TAF:

METAR-TAF

Lufthavne :

Bojnord, Iran

Breddekreds: 37-28N, længdekreds: 057-20E, højde: 1074 m

Aktuelle vejr

Denne rapport blev lavet for 52 minutter siden, kl. 23:00 UTC
Vind 4 kt fra vest
Temperatur 24°C
Fugtighed 74%
Tryk 1010 hPa
Sigt 10 km eller mere
ingen skyer under 1500m og ingen cumulonimbus

METAR: OIMN 162300Z 26004KT CAVOK 24/19 Q1010

Tid: 04:22 (23:52 UTC)


TAF: fraværende

Vejrobservationer og prognoser fra mere end 4000 lufthavne (METAR og TAF).

De gule og røde prikker repræsenterer de meteorologiske stationer.

Flyt musen over at se navnet på stationen.

Så klik over at se vejr observationer og prognoser.

At skifte det kort: Klik på de grønne knapper med et sort kors for at zoome ind; på den grønne knap med en bindestreg for at zoome ud; eller på de grønne pile for tilstødende kort.


METAR-TAF: